Time;durP1;ratioP1;P1;durP2;ratioP2;P2;SDS_P1;SDS_P2;PMS_P1;PMS_P2;Temp;Humidity;BMP_temperature;BMP_pressure;BME280_temperature;BME280_humidity;BME280_pressure;Samples;Min_cycle;Max_cycle;Signal;HPM_P1;HPM_P2
2021/03/20 00:02:01;;;;;;;6.13;2.40;;;1.40;99.90;;;;;;5035428;28;20049;-73
2021/03/20 00:04:28;;;;;;;5.80;2.53;;;1.30;99.90;;;;;;5037622;28;20044;-72
2021/03/20 00:06:58;;;;;;;6.17;2.70;;;1.20;99.90;;;;;;5043874;28;20059;-71
2021/03/20 00:09:29;;;;;;;5.67;2.37;;;1.20;99.90;;;;;;5046244;28;20080;-72
2021/03/20 00:11:58;;;;;;;5.60;2.47;;;1.10;99.90;;;;;;5046193;28;20052;-72
2021/03/20 00:14:25;;;;;;;7.03;2.50;;;1.10;99.90;;;;;;5045690;28;20156;-72
2021/03/20 00:16:54;;;;;;;8.57;2.70;;;1.00;99.90;;;;;;5045648;28;20052;-72
2021/03/20 00:19:21;;;;;;;9.97;2.90;;;0.90;99.90;;;;;;5044827;28;20061;-72
2021/03/20 00:21:48;;;;;;;5.53;2.20;;;0.90;99.90;;;;;;5045471;28;20150;-72
2021/03/20 00:24:15;;;;;;;5.90;2.80;;;0.80;99.90;;;;;;5044227;28;20072;-72
2021/03/20 00:26:42;;;;;;;7.17;2.90;;;0.70;99.90;;;;;;5045705;28;20097;-72
2021/03/20 00:29:08;;;;;;;6.20;2.90;;;0.70;99.90;;;;;;5045406;28;20052;-72
2021/03/20 00:31:35;;;;;;;8.23;3.40;;;0.60;99.90;;;;;;5045481;28;20051;-72
2021/03/20 00:34:03;;;;;;;7.57;2.93;;;0.70;99.90;;;;;;5043421;28;20083;-72
2021/03/20 00:36:29;;;;;;;7.80;2.87;;;0.60;99.90;;;;;;5041805;28;20127;-72
2021/03/20 00:38:56;;;;;;;7.73;2.93;;;0.50;99.90;;;;;;5043305;28;20088;-73
2021/03/20 00:41:22;;;;;;;13.33;2.97;;;0.50;99.90;;;;;;5044487;28;20045;-72
2021/03/20 00:43:49;;;;;;;9.27;3.50;;;0.40;99.90;;;;;;5042647;28;20060;-72
2021/03/20 00:46:15;;;;;;;9.57;3.37;;;0.50;99.90;;;;;;5044498;28;20060;-72
2021/03/20 00:48:42;;;;;;;7.80;3.80;;;0.60;99.90;;;;;;5044586;28;21466;-72
2021/03/20 00:51:10;;;;;;;8.50;3.63;;;0.70;99.90;;;;;;5049319;28;20098;-73
2021/03/20 00:53:37;;;;;;;10.03;3.33;;;0.60;99.90;;;;;;5055301;28;20044;-73
2021/03/20 00:56:03;;;;;;;10.27;3.90;;;0.50;99.90;;;;;;5052413;28;20056;-73
2021/03/20 00:58:31;;;;;;;9.13;3.77;;;0.50;99.90;;;;;;5045495;28;20044;-73
2021/03/20 01:01:01;;;;;;;9.03;3.50;;;0.40;99.90;;;;;;5043490;28;20060;-73
2021/03/20 01:03:28;;;;;;;6.30;3.10;;;0.50;99.90;;;;;;5040868;28;20076;-72
2021/03/20 01:05:55;;;;;;;8.37;3.90;;;0.50;99.90;;;;;;5042974;28;20416;-73
2021/03/20 01:08:23;;;;;;;10.20;3.50;;;0.50;99.90;;;;;;5042672;28;20048;-73
2021/03/20 01:10:50;;;;;;;10.50;3.40;;;0.40;99.90;;;;;;5043292;28;20052;-73
2021/03/20 01:13:17;;;;;;;12.33;3.77;;;0.40;99.90;;;;;;5041942;28;20052;-72
2021/03/20 01:15:44;;;;;;;9.70;4.30;;;0.40;99.90;;;;;;5044049;28;20048;-73
2021/03/20 01:18:12;;;;;;;10.43;3.60;;;0.40;99.90;;;;;;5042860;28;20087;-73
2021/03/20 01:20:39;;;;;;;9.00;3.60;;;0.20;99.90;;;;;;5042870;28;20052;-73
2021/03/20 01:23:06;;;;;;;7.60;3.37;;;0.20;99.90;;;;;;5042050;28;20052;-73
2021/03/20 01:25:33;;;;;;;10.33;3.43;;;0.30;99.90;;;;;;5042669;28;20736;-73
2021/03/20 01:28:00;;;;;;;8.87;3.57;;;0.30;99.90;;;;;;5044008;28;20056;-73
2021/03/20 01:30:29;;;;;;;6.73;3.30;;;0.20;99.90;;;;;;5044834;28;20076;-73
2021/03/20 01:32:56;;;;;;;11.83;3.40;;;0.10;99.90;;;;;;5043930;28;20060;-73
2021/03/20 01:35:26;;;;;;;6.83;3.10;;;0.00;99.90;;;;;;5044018;28;20053;-73
2021/03/20 01:37:53;;;;;;;11.03;3.63;;;0.10;99.90;;;;;;5045641;28;20056;-73
2021/03/20 01:40:22;;;;;;;6.87;2.90;;;0.10;99.90;;;;;;5046126;28;20497;-73
2021/03/20 01:42:49;;;;;;;7.13;3.10;;;0.20;99.90;;;;;;5045607;28;20440;-73
2021/03/20 01:45:20;;;;;;;6.70;3.00;;;0.00;99.90;;;;;;5046082;28;21654;-73
2021/03/20 01:47:51;;;;;;;7.97;3.00;;;0.10;99.90;;;;;;5047340;28;20163;-73
2021/03/20 01:50:26;;;;;;;8.70;3.03;;;0.10;99.90;;;;;;5046874;28;20052;-73
2021/03/20 01:52:57;;;;;;;9.37;3.60;;;0.10;99.90;;;;;;5042635;28;20048;-72
2021/03/20 01:55:28;;;;;;;7.90;3.20;;;-0.10;99.90;;;;;;5044714;28;20048;-73
2021/03/20 01:57:58;;;;;;;6.27;2.73;;;0.00;99.90;;;;;;5048376;28;20057;-73
2021/03/20 02:00:31;;;;;;;6.67;3.10;;;-0.10;99.90;;;;;;5047841;28;20044;-73
2021/03/20 02:02:58;;;;;;;7.03;2.57;;;-0.20;99.90;;;;;;5046228;28;20790;-73
2021/03/20 02:05:27;;;;;;;8.03;3.03;;;-0.20;99.90;;;;;;5045886;28;20044;-72
2021/03/20 02:07:55;;;;;;;8.27;2.50;;;-0.20;99.90;;;;;;5045877;28;20052;-72
2021/03/20 02:10:24;;;;;;;10.37;3.67;;;-0.40;99.90;;;;;;5045098;28;20044;-72
2021/03/20 02:12:57;;;;;;;8.57;3.00;;;-0.30;99.90;;;;;;5045664;28;20092;-72
2021/03/20 02:15:31;;;;;;;8.40;2.93;;;-0.50;99.90;;;;;;5045511;28;20048;-72
2021/03/20 02:18:05;;;;;;;7.40;2.83;;;-0.30;99.90;;;;;;5044535;28;20072;-72
2021/03/20 02:21:04;;;;;;;7.23;3.30;;;-0.40;99.90;;;;;;5044712;28;20074;-73
2021/03/20 02:24:33;;;;;;;7.70;3.00;;;-0.40;99.90;;;;;;5045526;28;22065;-72
2021/03/20 02:27:42;;;;;;;9.30;3.03;;;-0.40;99.90;;;;;;5045699;28;20048;-72
2021/03/20 02:31:01;;;;;;;8.53;3.07;;;-0.40;99.90;;;;;;5044647;28;20052;-72
2021/03/20 02:33:38;;;;;;;7.73;3.40;;;-0.50;99.90;;;;;;5041316;28;20284;-72
2021/03/20 02:36:15;;;;;;;15.00;3.63;;;-0.50;99.90;;;;;;5044773;28;20067;-72
2021/03/20 02:38:47;;;;;;;7.53;3.10;;;-0.60;99.90;;;;;;5044415;28;20074;-72
2021/03/20 02:41:23;;;;;;;10.97;3.90;;;-0.60;99.90;;;;;;5045457;28;20118;-72
2021/03/20 02:43:58;;;;;;;6.10;2.35;;;-0.50;99.90;;;;;;5044142;28;20059;-71
2021/03/20 02:46:28;;;;;;;10.00;3.73;;;-0.60;99.90;;;;;;5043906;28;20056;-72
2021/03/20 02:49:03;;;;;;;9.50;2.93;;;-0.70;99.90;;;;;;5043701;28;20063;-72
2021/03/20 02:51:36;;;;;;;12.97;3.13;;;-0.70;99.90;;;;;;5042395;28;20497;-72
2021/03/20 02:54:07;;;;;;;10.63;3.70;;;-0.70;99.90;;;;;;5041849;28;20420;-73
2021/03/20 02:56:40;;;;;;;7.20;2.87;;;-0.70;99.90;;;;;;5042821;28;20048;-73
2021/03/20 02:59:12;;;;;;;8.27;3.10;;;-0.80;99.90;;;;;;5043067;28;20078;-72
2021/03/20 03:01:41;;;;;;;6.30;2.40;;;-0.60;99.90;;;;;;5042387;28;20508;-72
2021/03/20 03:04:12;;;;;;;7.57;2.80;;;-0.70;99.90;;;;;;5041411;28;20101;-73
2021/03/20 03:06:46;;;;;;;6.27;2.60;;;-0.80;99.90;;;;;;5042424;28;20056;-73
2021/03/20 03:09:17;;;;;;;9.07;3.17;;;-0.60;99.90;;;;;;5041801;28;20041;-73
2021/03/20 03:11:50;;;;;;;7.73;2.43;;;-0.60;99.90;;;;;;5043573;28;20051;-72
2021/03/20 03:14:23;;;;;;;6.20;2.60;;;-0.60;99.90;;;;;;5041473;28;20451;-72
2021/03/20 03:16:54;;;;;;;6.93;2.70;;;-0.80;99.90;;;;;;5042645;28;20049;-73
2021/03/20 03:19:28;;;;;;;8.33;3.17;;;-0.70;99.90;;;;;;5042578;28;20081;-72
2021/03/20 03:21:59;;;;;;;8.77;3.60;;;-0.90;99.90;;;;;;5040889;28;20730;-73
2021/03/20 03:24:28;;;;;;;8.50;2.60;;;-0.90;99.90;;;;;;5034629;28;20075;-73
2021/03/20 03:26:58;;;;;;;6.60;2.97;;;-0.70;99.90;;;;;;5039697;28;20134;-73
2021/03/20 03:29:27;;;;;;;6.87;2.70;;;-0.90;99.90;;;;;;5039611;28;20420;-73
2021/03/20 03:32:02;;;;;;;7.60;2.93;;;-0.80;99.90;;;;;;5042415;28;20216;-72
2021/03/20 03:34:36;;;;;;;11.33;3.30;;;-0.80;99.90;;;;;;5042672;28;20075;-72
2021/03/20 03:37:09;;;;;;;8.97;2.77;;;-0.90;99.90;;;;;;5042536;28;20057;-72
2021/03/20 03:39:43;;;;;;;9.63;2.97;;;-0.90;99.90;;;;;;5041553;28;20122;-71
2021/03/20 03:42:13;;;;;;;7.43;2.90;;;-0.90;99.90;;;;;;5041718;28;20616;-72
2021/03/20 03:44:43;;;;;;;6.90;3.07;;;-1.00;99.90;;;;;;5040822;28;20048;-72
2021/03/20 03:47:15;;;;;;;9.57;3.13;;;-1.00;99.90;;;;;;5042219;28;20045;-72
2021/03/20 03:49:42;;;;;;;8.33;3.30;;;-1.00;99.90;;;;;;5042487;28;20168;-73
2021/03/20 03:52:12;;;;;;;8.80;3.27;;;-1.10;99.90;;;;;;5041973;28;20497;-73
2021/03/20 03:54:39;;;;;;;7.73;2.73;;;-1.20;99.90;;;;;;5042117;28;20113;-72
2021/03/20 03:57:28;;;;;;;6.00;2.63;;;-1.20;99.90;;;;;;5042845;28;20056;-72
2021/03/20 04:00:10;;;;;;;7.00;3.47;;;-1.10;99.90;;;;;;5042658;28;20150;-72
2021/03/20 04:02:48;;;;;;;17.17;3.80;;;-1.10;99.90;;;;;;5040163;28;20494;-73
2021/03/20 04:05:24;;;;;;;8.03;2.37;;;-1.20;99.90;;;;;;5041348;28;20048;-72
2021/03/20 04:08:08;;;;;;;7.30;2.42;;;-1.20;99.90;;;;;;5041441;28;20060;-72
2021/03/20 04:10:41;;;;;;;9.97;2.53;;;-1.10;99.90;;;;;;5040964;28;20064;-72
2021/03/20 04:13:15;;;;;;;8.10;2.47;;;-1.00;99.90;;;;;;5039266;28;20409;-72
2021/03/20 04:16:06;;;;;;;6.03;2.13;;;-1.20;99.90;;;;;;5041018;28;20052;-72
2021/03/20 04:18:41;;;;;;;7.30;2.30;;;-1.20;99.90;;;;;;5037050;28;20053;-72
2021/03/20 04:21:20;;;;;;;7.67;2.63;;;-1.00;99.90;;;;;;5043199;28;20060;-72
2021/03/20 04:23:58;;;;;;;10.17;2.93;;;-1.00;99.90;;;;;;5043380;28;20600;-72
2021/03/20 04:26:38;;;;;;;9.17;2.83;;;-1.10;99.90;;;;;;5044541;28;20044;-72
2021/03/20 04:29:10;;;;;;;10.20;2.87;;;-0.90;99.90;;;;;;5041815;28;20052;-72
2021/03/20 04:31:42;;;;;;;7.63;2.50;;;-1.00;99.90;;;;;;5039901;28;20057;-72
2021/03/20 04:34:15;;;;;;;10.17;2.63;;;-1.10;99.90;;;;;;5039597;28;20508;-71
2021/03/20 04:36:47;;;;;;;9.00;2.50;;;-1.30;99.90;;;;;;5040490;28;20052;-71
2021/03/20 04:39:17;;;;;;;6.27;2.43;;;-1.30;99.90;;;;;;5044250;28;20048;-72
2021/03/20 04:41:44;;;;;;;8.30;2.70;;;-1.30;99.90;;;;;;5055160;28;20040;-72
2021/03/20 04:44:12;;;;;;;8.63;2.40;;;-1.30;99.90;;;;;;5054190;28;20063;-71
2021/03/20 04:46:40;;;;;;;5.47;2.43;;;-1.30;99.90;;;;;;5041488;28;20049;-71
2021/03/20 04:49:16;;;;;;;5.03;2.13;;;-1.30;99.90;;;;;;5041951;28;20584;-71
2021/03/20 04:51:48;;;;;;;8.27;2.47;;;-1.20;99.90;;;;;;5041442;28;20084;-71
2021/03/20 04:54:18;;;;;;;7.80;2.20;;;-1.00;99.90;;;;;;5040853;28;20056;-71
2021/03/20 04:56:48;;;;;;;6.83;2.20;;;-1.10;99.90;;;;;;5041796;28;20084;-72
2021/03/20 04:59:34;;;;;;;6.03;2.10;;;-1.10;99.90;;;;;;5040951;28;20558;-71
2021/03/20 05:02:06;;;;;;;5.57;1.97;;;-1.20;99.90;;;;;;5041113;28;20102;-72
2021/03/20 05:04:37;;;;;;;13.37;2.87;;;-1.10;99.90;;;;;;5039810;28;20511;-72
2021/03/20 05:07:05;;;;;;;7.47;2.30;;;-1.00;99.90;;;;;;5040644;28;20493;-71
2021/03/20 05:09:32;;;;;;;5.47;2.10;;;-0.90;99.90;;;;;;5041264;28;20048;-71
2021/03/20 05:12:01;;;;;;;8.47;2.43;;;-0.90;99.90;;;;;;5040978;28;20044;-72
2021/03/20 05:14:37;;;;;;;7.53;2.50;;;-0.80;99.90;;;;;;5041074;28;20048;-72
2021/03/20 05:17:08;;;;;;;7.15;2.88;;;-0.90;99.90;;;;;;5040598;28;20057;-71
2021/03/20 05:19:35;;;;;;;7.33;2.70;;;-0.90;99.90;;;;;;5041863;28;20102;-71
2021/03/20 05:22:02;;;;;;;8.03;3.03;;;-0.90;99.90;;;;;;5040879;28;20056;-71
2021/03/20 05:24:31;;;;;;;7.13;3.00;;;-0.90;99.90;;;;;;5040849;28;20052;-72
2021/03/20 05:26:59;;;;;;;6.87;3.10;;;-1.00;99.90;;;;;;5040281;28;20508;-72
2021/03/20 05:29:27;;;;;;;7.70;2.97;;;-1.00;99.90;;;;;;5040523;28;20044;-72
2021/03/20 05:31:55;;;;;;;6.60;3.17;;;-1.10;99.90;;;;;;5043746;28;20049;-72
2021/03/20 05:34:25;;;;;;;7.40;2.97;;;-1.20;99.90;;;;;;5045258;28;20048;-72
2021/03/20 05:36:53;;;;;;;8.70;3.43;;;-1.20;99.90;;;;;;5046598;28;20064;-72
2021/03/20 05:39:21;;;;;;;8.30;3.60;;;-1.20;99.90;;;;;;5045871;28;20045;-72
2021/03/20 05:42:08;;;;;;;9.87;3.60;;;-1.20;99.90;;;;;;5045550;28;20063;-71
2021/03/20 05:44:55;;;;;;;7.88;3.35;;;-1.20;99.90;;;;;;5045010;28;20049;-72
2021/03/20 05:47:34;;;;;;;8.57;3.80;;;-1.20;99.90;;;;;;5045251;28;20095;-72
2021/03/20 05:50:15;;;;;;;9.13;4.53;;;-1.20;99.90;;;;;;5045686;28;20056;-72
2021/03/20 05:52:54;;;;;;;10.00;3.53;;;-1.20;99.90;;;;;;5044127;28;20053;-72
2021/03/20 05:55:30;;;;;;;9.17;4.20;;;-1.20;99.90;;;;;;5046046;28;20056;-72
2021/03/20 05:58:16;;;;;;;11.60;4.40;;;-1.20;99.90;;;;;;5045264;28;20049;-72
2021/03/20 06:00:51;;;;;;;7.97;4.00;;;-1.20;99.90;;;;;;5046258;28;20485;-71
2021/03/20 06:03:32;;;;;;;12.33;5.10;;;-1.10;99.90;;;;;;5045036;28;20041;-71
2021/03/20 06:06:04;;;;;;;12.37;4.43;;;-1.10;99.90;;;;;;5046487;28;20052;-71
2021/03/20 06:08:54;;;;;;;10.07;4.20;;;-1.20;99.90;;;;;;5046675;28;20067;-71
2021/03/20 06:11:39;;;;;;;9.33;4.63;;;-1.10;99.90;;;;;;5045472;28;20056;-71
2021/03/20 06:14:23;;;;;;;10.03;4.17;;;-1.10;99.90;;;;;;5044595;28;20052;-71
2021/03/20 06:17:03;;;;;;;12.10;4.47;;;-1.10;99.90;;;;;;5047828;28;20052;-71
2021/03/20 06:20:02;;;;;;;13.30;5.10;;;-1.10;99.90;;;;;;5047176;28;20052;-71
2021/03/20 06:22:41;;;;;;;9.17;4.60;;;-1.10;99.90;;;;;;5040629;28;20135;-72
2021/03/20 06:25:31;;;;;;;9.13;4.67;;;-1.20;99.90;;;;;;5036167;28;20052;-71
2021/03/20 06:27:58;;;;;;;15.10;5.20;;;-1.00;99.90;;;;;;5040729;28;20052;-72
2021/03/20 06:30:37;;;;;;;12.20;5.17;;;-1.20;99.90;;;;;;5045479;28;20053;-71
2021/03/20 06:33:14;;;;;;;12.37;5.33;;;-1.20;99.90;;;;;;5041356;28;20059;-71
2021/03/20 06:35:45;;;;;;;12.13;5.53;;;-1.10;99.90;;;;;;5044834;28;20244;-71
2021/03/20 06:38:22;;;;;;;11.13;5.10;;;-1.10;99.90;;;;;;5043436;28;20152;-72
2021/03/20 06:40:56;;;;;;;15.30;5.67;;;-1.00;99.90;;;;;;5043059;28;20082;-72
2021/03/20 06:43:30;;;;;;;10.63;5.77;;;-1.10;99.90;;;;;;5042523;28;20052;-71
2021/03/20 06:45:58;;;;;;;9.73;5.00;;;-1.10;99.90;;;;;;5043732;28;20075;-72
2021/03/20 06:48:30;;;;;;;10.27;5.70;;;-0.90;99.90;;;;;;5043669;28;20048;-71
2021/03/20 06:50:59;;;;;;;11.93;5.10;;;-0.90;99.90;;;;;;5042955;28;20095;-71
2021/03/20 06:53:38;;;;;;;12.20;6.03;;;-0.90;99.90;;;;;;5041916;28;20102;-72
2021/03/20 06:56:08;;;;;;;11.53;5.73;;;-0.70;99.90;;;;;;5042753;28;20048;-71
2021/03/20 06:58:37;;;;;;;16.43;5.53;;;-0.70;99.90;;;;;;5042361;28;21115;-72
2021/03/20 07:01:13;;;;;;;12.23;4.50;;;-0.60;99.90;;;;;;5042570;28;20053;-71
2021/03/20 07:04:13;;;;;;;10.73;4.80;;;-0.70;99.90;;;;;;5043381;28;20135;-72
2021/03/20 07:06:47;;;;;;;11.43;5.07;;;-0.60;99.90;;;;;;5044487;28;20493;-72
2021/03/20 07:09:14;;;;;;;11.80;4.87;;;-0.50;99.90;;;;;;5043218;28;20048;-72
2021/03/20 07:11:43;;;;;;;10.57;4.47;;;-0.40;99.90;;;;;;5046010;28;20049;-72
2021/03/20 07:14:12;;;;;;;11.10;4.60;;;-0.10;99.90;;;;;;5044711;28;20048;-72
2021/03/20 07:16:53;;;;;;;10.93;4.23;;;0.10;99.90;;;;;;5046468;28;20491;-71
2021/03/20 07:19:20;;;;;;;11.23;4.60;;;0.20;99.90;;;;;;5044367;28;20421;-72
2021/03/20 07:22:04;;;;;;;10.73;4.57;;;0.20;99.90;;;;;;5045019;28;20056;-72
2021/03/20 07:24:34;;;;;;;9.63;4.43;;;0.40;99.90;;;;;;5044880;28;20056;-72
2021/03/20 07:27:04;;;;;;;9.70;5.00;;;0.40;99.90;;;;;;5045651;28;20078;-72
2021/03/20 07:29:41;;;;;;;10.20;4.17;;;0.50;99.90;;;;;;5043614;28;20044;-72
2021/03/20 07:32:11;;;;;;;11.27;4.77;;;0.50;99.90;;;;;;5034394;28;20048;-72
2021/03/20 07:34:38;;;;;;;8.63;4.10;;;0.60;99.90;;;;;;5039421;28;20062;-73
2021/03/20 07:37:12;;;;;;;7.80;4.30;;;0.50;99.90;;;;;;5049383;28;20055;-79
2021/03/20 07:39:42;;;;;;;9.40;4.33;;;0.60;99.90;;;;;;5047273;28;20063;-76
2021/03/20 07:42:32;;;;;;;11.83;4.07;;;0.80;99.90;;;;;;5046974;28;20045;-73
2021/03/20 07:45:00;;;;;;;8.67;4.20;;;0.80;99.90;;;;;;5055920;28;20052;-78
2021/03/20 07:47:35;;;;;;;10.87;3.80;;;1.00;99.90;;;;;;5045412;28;20047;-79
2021/03/20 07:50:27;;;;;;;8.17;4.07;;;1.10;99.90;;;;;;5040369;28;20585;-76
2021/03/20 07:53:08;;;;;;;9.63;4.40;;;1.60;99.90;;;;;;5023654;28;20051;-74
2021/03/20 07:55:56;;;;;;;8.80;3.90;;;1.40;99.90;;;;;;5043041;28;20092;-77
2021/03/20 07:58:26;;;;;;;6.73;3.47;;;1.40;99.90;;;;;;5044152;28;20044;-77
2021/03/20 08:00:58;;;;;;;10.83;4.10;;;1.00;99.90;;;;;;5039294;28;20065;-74
2021/03/20 08:03:28;;;;;;;7.63;3.67;;;1.40;99.90;;;;;;5036732;28;20059;-76
2021/03/20 08:06:12;;;;;;;7.53;3.37;;;1.90;99.90;;;;;;5036918;28;20052;-75
2021/03/20 08:08:38;;;;;;;8.63;3.53;;;2.00;99.90;;;;;;5038867;28;20528;-78
2021/03/20 08:11:22;;;;;;;8.60;3.43;;;2.30;99.90;;;;;;5042011;28;20048;-78
2021/03/20 08:13:54;;;;;;;8.37;3.10;;;2.30;99.90;;;;;;5041949;28;20121;-74
2021/03/20 08:16:21;;;;;;;11.23;3.63;;;2.70;99.90;;;;;;5042770;28;20131;-77
2021/03/20 08:18:52;;;;;;;12.17;3.97;;;2.80;99.90;;;;;;5041449;28;20451;-75
2021/03/20 08:21:43;;;;;;;6.93;3.20;;;2.60;99.90;;;;;;5042074;28;20413;-78
2021/03/20 08:24:27;;;;;;;8.00;3.30;;;2.90;99.90;;;;;;5039159;28;20498;-78
2021/03/20 08:27:03;;;;;;;6.47;3.07;;;3.40;99.90;;;;;;5048603;28;20052;-81
2021/03/20 08:29:49;;;;;;;9.70;3.13;;;4.30;99.90;;;;;;5054964;28;20049;-78
2021/03/20 08:32:27;;;;;;;8.87;3.07;;;5.50;99.90;;;;;;5048081;28;20052;-79
2021/03/20 08:35:05;;;;;;;6.53;2.83;;;6.40;99.90;;;;;;5043273;28;20771;-77
2021/03/20 08:37:48;;;;;;;7.38;3.13;;;7.30;96.40;;;;;;5040199;28;20076;-77
2021/03/20 08:40:39;;;;;;;7.00;3.33;;;8.30;87.70;;;;;;5044551;28;20465;-75
2021/03/20 08:43:54;;;;;;;5.97;3.13;;;8.80;83.70;;;;;;5048233;28;20048;-72
2021/03/20 08:46:51;;;;;;;6.78;3.20;;;9.30;77.30;;;;;;4966798;28;20054;-71
2021/03/20 08:49:28;;;;;;;6.10;2.70;;;10.40;71.40;;;;;;4976309;28;20078;-72
2021/03/20 08:52:01;;;;;;;5.82;3.30;;;11.40;64.80;;;;;;5040881;28;20501;-73
2021/03/20 08:54:46;;;;;;;5.82;3.10;;;12.10;60.40;;;;;;5046729;28;20106;-73
2021/03/20 08:57:25;;;;;;;5.80;3.05;;;11.70;58.50;;;;;;5042920;28;20558;-74
2021/03/20 08:59:55;;;;;;;7.50;3.80;;;11.90;58.00;;;;;;5039241;28;20060;-75
2021/03/20 09:02:38;;;;;;;7.10;3.33;;;12.70;56.10;;;;;;5039877;28;20045;-74
2021/03/20 09:05:15;;;;;;;5.93;3.13;;;12.60;55.10;;;;;;5040212;28;20044;-70
2021/03/20 09:07:48;;;;;;;6.50;3.38;;;13.30;51.90;;;;;;5044708;28;20055;-73
2021/03/20 09:10:21;;;;;;;8.27;3.55;;;13.70;52.30;;;;;;5042345;28;20059;-70
2021/03/20 09:12:57;;;;;;;6.72;3.15;;;14.50;50.80;;;;;;5042151;28;20052;-71
2021/03/20 09:15:31;;;;;;;7.38;3.80;;;15.00;49.20;;;;;;5044623;28;20515;-73
2021/03/20 09:18:01;;;;;;;5.57;3.00;;;14.40;47.40;;;;;;5045434;28;20548;-76
2021/03/20 09:20:38;;;;;;;6.88;3.40;;;14.40;48.10;;;;;;5048869;28;20473;-76
2021/03/20 09:23:07;;;;;;;5.75;3.08;;;14.90;47.90;;;;;;5040515;28;20056;-73
2021/03/20 09:25:36;;;;;;;6.28;3.22;;;15.40;47.00;;;;;;5046063;28;20585;-70
2021/03/20 09:28:12;;;;;;;6.15;3.47;;;15.50;47.70;;;;;;5039502;28;20464;-72
2021/03/20 09:30:44;;;;;;;8.48;3.58;;;16.00;45.50;;;;;;5040588;28;20190;-74
2021/03/20 09:33:35;;;;;;;6.65;3.60;;;16.60;45.70;;;;;;5041035;28;20116;-72
2021/03/20 09:36:04;;;;;;;6.72;3.50;;;15.50;45.30;;;;;;5043700;28;20059;-71
2021/03/20 09:38:51;;;;;;;7.85;3.60;;;14.30;45.50;;;;;;5045607;28;20045;-70
2021/03/20 09:41:35;;;;;;;6.25;3.30;;;12.80;46.80;;;;;;5044807;28;21066;-70
2021/03/20 09:44:25;;;;;;;6.68;3.33;;;12.10;48.20;;;;;;5043580;28;20056;-70
2021/03/20 09:46:54;;;;;;;6.55;3.05;;;12.50;48.30;;;;;;5043936;28;20059;-70
2021/03/20 09:49:55;;;;;;;10.30;3.75;;;12.60;48.00;;;;;;5044502;28;20056;-71
2021/03/20 09:52:55;;;;;;;6.40;3.63;;;12.00;49.30;;;;;;5043681;28;20045;-72
2021/03/20 09:55:41;;;;;;;7.07;3.67;;;12.70;48.60;;;;;;5031241;28;20063;-72
2021/03/20 09:58:39;;;;;;;6.57;3.30;;;11.90;47.80;;;;;;5045910;28;20134;-72
2021/03/20 10:01:13;;;;;;;6.57;3.35;;;11.20;48.10;;;;;;5044600;28;20501;-71
2021/03/20 10:03:44;;;;;;;7.72;3.50;;;11.00;49.30;;;;;;5043346;28;20044;-71
2021/03/20 10:06:42;;;;;;;7.45;3.17;;;10.30;49.70;;;;;;5040772;28;20060;-71
2021/03/20 10:09:22;;;;;;;6.95;3.15;;;9.40;51.70;;;;;;5044708;28;20048;-71
2021/03/20 10:12:13;;;;;;;7.72;3.13;;;8.30;52.90;;;;;;5050017;28;20441;-70
2021/03/20 10:15:00;;;;;;;6.75;3.10;;;7.30;54.10;;;;;;5049621;28;20568;-70
2021/03/20 10:17:30;;;;;;;5.80;2.63;;;8.10;55.00;;;;;;5049006;28;20185;-70
2021/03/20 10:20:09;;;;;;;5.47;2.65;;;9.10;53.20;;;;;;5050053;28;20044;-70
2021/03/20 10:22:46;;;;;;;6.50;2.88;;;8.70;53.70;;;;;;5049030;28;20056;-71
2021/03/20 10:25:15;;;;;;;6.97;2.67;;;8.40;54.20;;;;;;5050120;28;20098;-70
2021/03/20 10:27:49;;;;;;;8.95;3.15;;;7.70;53.50;;;;;;5050031;28;20516;-71
2021/03/20 10:30:18;;;;;;;7.57;2.63;;;7.50;53.60;;;;;;5049106;28;20053;-71
2021/03/20 10:32:59;;;;;;;7.13;3.20;;;8.90;54.50;;;;;;5047519;28;20059;-71
2021/03/20 10:35:27;;;;;;;6.70;2.72;;;9.70;53.40;;;;;;5049382;28;20059;-71
2021/03/20 10:37:57;;;;;;;6.75;2.72;;;9.00;52.40;;;;;;5044238;28;20049;-71
2021/03/20 10:40:27;;;;;;;6.90;2.35;;;8.70;52.00;;;;;;5048216;28;20048;-70
2021/03/20 10:43:00;;;;;;;7.68;2.47;;;8.30;53.60;;;;;;5048866;28;20052;-70
2021/03/20 10:45:31;;;;;;;6.70;2.47;;;8.50;53.20;;;;;;5047826;28;20049;-70
2021/03/20 10:48:14;;;;;;;5.82;2.35;;;9.30;53.90;;;;;;5046559;28;20131;-71
2021/03/20 10:50:44;;;;;;;5.85;2.50;;;10.90;49.80;;;;;;5046510;28;20055;-71
2021/03/20 10:53:16;;;;;;;5.00;2.40;;;12.00;49.90;;;;;;5045031;28;20085;-71
2021/03/20 10:55:47;;;;;;;6.32;2.85;;;13.40;47.20;;;;;;5047264;28;20131;-71
2021/03/20 10:58:27;;;;;;;7.45;3.25;;;14.00;46.00;;;;;;5047508;28;20081;-71
2021/03/20 11:00:54;;;;;;;7.03;2.65;;;12.30;46.10;;;;;;5045259;28;20048;-71
2021/03/20 11:03:27;;;;;;;4.63;2.65;;;13.10;48.60;;;;;;5044137;28;20485;-71
2021/03/20 11:05:54;;;;;;;7.28;2.95;;;13.50;47.90;;;;;;5045956;28;20045;-71
2021/03/20 11:08:28;;;;;;;6.97;3.20;;;13.00;49.10;;;;;;5046339;28;20071;-71
2021/03/20 11:11:09;;;;;;;6.60;3.33;;;12.50;48.30;;;;;;5046467;28;20056;-71
2021/03/20 11:13:39;;;;;;;6.82;2.85;;;11.60;48.60;;;;;;5045757;28;20395;-71
2021/03/20 11:16:10;;;;;;;5.75;2.78;;;11.70;48.40;;;;;;5045189;28;20413;-70
2021/03/20 11:18:40;;;;;;;8.30;3.20;;;11.80;48.30;;;;;;5045882;28;20053;-71
2021/03/20 11:21:32;;;;;;;6.20;2.60;;;10.60;48.00;;;;;;5046262;28;20041;-71
2021/03/20 11:24:00;;;;;;;8.32;3.40;;;11.40;49.90;;;;;;5044494;28;20040;-70
2021/03/20 11:26:39;;;;;;;6.70;3.15;;;11.30;49.50;;;;;;5046301;28;20059;-71
2021/03/20 11:29:12;;;;;;;6.32;2.80;;;11.70;49.40;;;;;;5041391;28;20055;-71
2021/03/20 11:31:46;;;;;;;7.68;3.13;;;12.80;47.80;;;;;;5045634;28;20049;-71
2021/03/20 11:34:18;;;;;;;5.78;2.95;;;13.20;48.40;;;;;;5043588;28;20056;-71
2021/03/20 11:36:45;;;;;;;6.03;2.60;;;13.70;47.20;;;;;;5045261;28;20513;-71
2021/03/20 11:39:14;;;;;;;6.75;2.92;;;13.30;47.00;;;;;;5045220;28;20059;-71
2021/03/20 11:41:42;;;;;;;7.45;2.88;;;12.70;45.60;;;;;;5045695;28;20045;-71
2021/03/20 11:44:22;;;;;;;6.85;3.60;;;12.30;47.60;;;;;;5044095;28;20052;-71
2021/03/20 11:46:52;;;;;;;5.93;2.50;;;13.10;45.70;;;;;;5045467;28;20509;-71
2021/03/20 11:49:25;;;;;;;5.72;2.35;;;13.40;46.60;;;;;;5050859;28;20047;-71
2021/03/20 11:51:53;;;;;;;5.75;2.47;;;13.80;44.80;;;;;;5047419;28;20053;-71
2021/03/20 11:54:28;;;;;;;4.60;2.60;;;14.40;44.10;;;;;;5046628;28;20052;-71
2021/03/20 11:57:00;;;;;;;4.53;2.47;;;14.20;43.60;;;;;;5046801;28;20052;-71
2021/03/20 11:59:40;;;;;;;5.03;2.50;;;14.00;44.50;;;;;;5050232;28;20083;-64
2021/03/20 12:02:11;;;;;;;5.93;2.47;;;13.90;46.80;;;;;;5044033;28;20518;-71
2021/03/20 12:04:38;;;;;;;6.75;3.00;;;13.20;45.40;;;;;;5052793;28;20082;-71
2021/03/20 12:07:24;;;;;;;4.93;2.83;;;13.20;46.30;;;;;;5051069;28;20386;-71
2021/03/20 12:09:52;;;;;;;6.43;2.80;;;13.50;46.60;;;;;;5049596;28;20084;-71
2021/03/20 12:12:19;;;;;;;4.88;2.50;;;12.90;45.50;;;;;;5050937;28;20118;-71
2021/03/20 12:14:47;;;;;;;4.65;2.50;;;13.70;45.40;;;;;;5041472;28;20718;-70
2021/03/20 12:17:20;;;;;;;6.05;2.80;;;13.70;43.40;;;;;;5032023;28;20071;-69
2021/03/20 12:19:53;;;;;;;7.20;3.53;;;14.00;43.60;;;;;;5033311;28;20044;-69
2021/03/20 12:22:33;;;;;;;6.22;2.45;;;13.60;44.30;;;;;;5029000;28;20488;-70
2021/03/20 12:25:05;;;;;;;5.75;2.55;;;13.40;45.50;;;;;;5030060;28;20895;-72
2021/03/20 12:27:34;;;;;;;5.50;2.53;;;13.30;45.10;;;;;;5034471;28;20052;-75
2021/03/20 12:30:06;;;;;;;5.68;2.63;;;12.90;44.50;;;;;;5032713;28;20429;-70
2021/03/20 12:32:39;;;;;;;5.82;2.65;;;12.60;44.30;;;;;;5034939;28;20052;-71
2021/03/20 12:35:31;;;;;;;4.15;2.30;;;12.50;43.40;;;;;;5035746;28;20067;-71
2021/03/20 12:38:19;;;;;;;4.93;2.50;;;12.40;42.60;;;;;;5019993;28;20059;-71
2021/03/20 12:40:55;;;;;;;5.90;3.00;;;11.60;43.90;;;;;;5036186;28;20135;-69
2021/03/20 12:43:30;;;;;;;6.53;3.13;;;11.10;45.60;;;;;;5036800;28;20052;-72
2021/03/20 12:45:59;;;;;;;6.43;3.33;;;11.70;46.00;;;;;;5040802;28;20056;-72
2021/03/20 12:48:27;;;;;;;6.50;2.75;;;11.60;46.60;;;;;;5041476;28;20547;-73
2021/03/20 12:51:01;;;;;;;7.22;3.28;;;11.00;47.00;;;;;;5042527;28;20057;-71
2021/03/20 12:53:28;;;;;;;7.95;2.72;;;11.00;47.50;;;;;;5042493;28;20059;-72
2021/03/20 12:55:55;;;;;;;6.40;2.97;;;10.30;46.80;;;;;;5039604;28;20056;-71
2021/03/20 12:58:21;;;;;;;8.65;2.83;;;9.90;47.60;;;;;;5038852;28;20062;-70
2021/03/20 13:00:48;;;;;;;6.93;3.20;;;9.90;48.60;;;;;;5038493;28;20075;-72
2021/03/20 13:03:16;;;;;;;6.25;2.83;;;9.90;48.00;;;;;;5036896;28;20079;-71
2021/03/20 13:05:43;;;;;;;7.47;2.70;;;9.60;48.10;;;;;;5037792;28;20052;-72
2021/03/20 13:08:11;;;;;;;6.50;3.10;;;9.40;48.30;;;;;;5040995;28;20110;-70
2021/03/20 13:10:39;;;;;;;5.45;2.70;;;9.50;49.30;;;;;;5044197;28;20056;-69
2021/03/20 13:13:06;;;;;;;7.88;2.65;;;9.70;49.10;;;;;;5043079;28;20041;-70
2021/03/20 13:15:33;;;;;;;5.85;2.70;;;9.40;48.00;;;;;;5044361;28;20075;-70
2021/03/20 13:17:59;;;;;;;5.15;2.63;;;9.20;48.90;;;;;;5044899;28;20060;-70
2021/03/20 13:20:28;;;;;;;6.20;2.60;;;9.40;49.00;;;;;;5044294;28;20549;-70
2021/03/20 13:22:54;;;;;;;6.20;2.67;;;9.80;48.10;;;;;;5043749;28;20348;-69
2021/03/20 13:25:24;;;;;;;4.63;2.28;;;9.80;48.70;;;;;;5043643;28;20052;-70